createdAt,value
2018-05-09T00:00:10.793Z,5.80
2018-05-09T00:01:11.003Z,6.20
2018-05-09T00:02:13.192Z,6.00
2018-05-09T00:03:11.406Z,6.40
2018-05-09T00:04:11.626Z,6.60
2018-05-09T00:05:11.848Z,6.30
2018-05-09T00:06:12.058Z,6.80
2018-05-09T00:07:12.275Z,6.40
2018-05-09T00:08:12.486Z,6.20
2018-05-09T00:09:14.185Z,6.50
2018-05-09T00:10:12.895Z,6.40
2018-05-09T00:11:13.114Z,7.00
2018-05-09T00:12:13.323Z,6.50
2018-05-09T00:13:13.534Z,6.50
2018-05-09T00:14:13.748Z,7.00
2018-05-09T00:15:13.958Z,6.40
2018-05-09T00:16:14.181Z,6.60
2018-05-09T00:17:14.381Z,7.40
2018-05-09T00:18:14.590Z,6.40
2018-05-09T00:19:14.825Z,6.20
2018-05-09T00:20:15.042Z,6.40
2018-05-09T00:21:15.286Z,6.20
2018-05-09T00:22:15.495Z,6.20
2018-05-09T00:23:15.680Z,6.50
2018-05-09T00:24:15.908Z,6.40
2018-05-09T00:25:16.126Z,6.20
2018-05-09T00:26:16.337Z,6.20
2018-05-09T00:27:16.563Z,6.30
2018-05-09T00:28:16.794Z,6.30
2018-05-09T00:29:16.998Z,6.60
2018-05-09T00:30:17.224Z,6.50
2018-05-09T00:31:17.463Z,6.00
2018-05-09T00:32:17.646Z,6.40
2018-05-09T00:33:17.866Z,6.40
2018-05-09T00:34:18.090Z,6.40
2018-05-09T00:35:20.189Z,6.50
2018-05-09T00:36:18.521Z,6.40
2018-05-09T00:37:18.750Z,6.30
2018-05-09T00:38:18.977Z,6.30
2018-05-09T00:39:19.193Z,6.00
2018-05-09T00:40:19.403Z,6.80
2018-05-09T00:41:19.613Z,6.20
2018-05-09T00:42:19.836Z,6.50
2018-05-09T00:43:20.052Z,6.50
2018-05-09T00:44:22.198Z,6.40
2018-05-09T00:45:20.412Z,6.40
2018-05-09T00:46:20.631Z,6.20
2018-05-09T00:47:20.839Z,6.20
2018-05-09T00:48:22.688Z,6.60
2018-05-09T00:49:21.280Z,6.30
2018-05-09T00:50:21.521Z,6.60
2018-05-09T00:51:21.715Z,6.70
2018-05-09T00:52:21.943Z,6.70
2018-05-09T00:53:22.159Z,6.50
2018-05-09T00:54:22.368Z,6.60
2018-05-09T00:55:22.575Z,6.60
2018-05-09T00:56:22.794Z,6.40
2018-05-09T00:57:24.685Z,6.90
2018-05-09T00:58:23.158Z,6.40
2018-05-09T00:59:23.384Z,7.00
2018-05-09T01:00:23.585Z,6.80
2018-05-09T01:01:23.807Z,6.30
2018-05-09T01:02:24.015Z,6.50
2018-05-09T01:03:24.234Z,6.20
2018-05-09T01:04:24.463Z,6.10
2018-05-09T01:05:24.675Z,6.00
2018-05-09T01:06:24.905Z,5.70
2018-05-09T01:07:25.126Z,5.50
2018-05-09T01:08:25.333Z,6.50
2018-05-09T01:09:25.553Z,5.60
2018-05-09T01:10:25.758Z,6.10
2018-05-09T01:11:25.970Z,5.90
2018-05-09T01:12:26.194Z,5.70
2018-05-09T01:13:26.395Z,5.90
2018-05-09T01:14:26.626Z,5.70
2018-05-09T01:15:26.837Z,5.70
2018-05-09T01:16:27.074Z,6.20
2018-05-09T01:17:29.196Z,5.50
2018-05-09T01:18:27.409Z,5.50
2018-05-09T01:19:27.616Z,5.90
2018-05-09T01:20:27.836Z,5.50
2018-05-09T01:21:28.040Z,5.80
2018-05-09T01:22:28.247Z,6.00
2018-05-09T01:23:28.464Z,5.70
2018-05-09T01:24:28.672Z,5.70
2018-05-09T01:25:28.901Z,5.90
2018-05-09T01:26:30.693Z,5.60
2018-05-09T01:27:31.194Z,5.50
2018-05-09T01:28:29.402Z,5.90
2018-05-09T01:29:29.621Z,6.00
2018-05-09T01:30:29.830Z,6.20
2018-05-09T01:31:30.047Z,6.30
2018-05-09T01:32:32.207Z,5.90
2018-05-09T01:33:32.190Z,5.80
2018-05-09T01:34:30.530Z,6.30
2018-05-09T01:35:32.696Z,6.20
2018-05-09T01:36:30.908Z,6.20
2018-05-09T01:37:31.126Z,6.60
2018-05-09T01:38:31.334Z,5.80
2018-05-09T01:39:31.549Z,5.90
2018-05-09T01:40:31.758Z,6.10
2018-05-09T01:41:31.982Z,6.00
2018-05-09T01:42:32.202Z,6.10
2018-05-09T01:43:32.415Z,5.80
2018-05-09T01:44:32.629Z,6.00
2018-05-09T01:45:32.841Z,6.40
2018-05-09T01:46:36.699Z,6.20
2018-05-09T01:47:33.305Z,6.50
2018-05-09T01:48:33.497Z,6.50
2018-05-09T01:49:33.704Z,6.70
2018-05-09T01:50:33.927Z,6.00
2018-05-09T01:51:34.167Z,6.80
2018-05-09T01:52:34.379Z,6.70
2018-05-09T01:53:34.561Z,6.80
2018-05-09T01:54:34.784Z,6.80
2018-05-09T01:55:35.002Z,6.60
2018-05-09T01:56:35.218Z,7.10
2018-05-09T01:57:35.434Z,6.80
2018-05-09T01:58:35.655Z,6.70
2018-05-09T01:59:35.868Z,6.80
2018-05-09T02:00:36.104Z,6.80
2018-05-09T02:01:36.298Z,6.90
2018-05-09T02:02:36.506Z,7.30
2018-05-09T02:03:36.724Z,6.90
2018-05-09T02:04:36.932Z,6.70
2018-05-09T02:05:37.145Z,6.70
2018-05-09T02:06:40.198Z,7.00
2018-05-09T02:07:37.528Z,6.70
2018-05-09T02:08:37.742Z,6.70
2018-05-09T02:09:37.969Z,6.60
2018-05-09T02:10:38.171Z,6.40
2018-05-09T02:11:38.376Z,6.90
2018-05-09T02:12:38.597Z,6.70
2018-05-09T02:13:38.797Z,6.80
2018-05-09T02:14:39.019Z,6.90
2018-05-09T02:15:39.238Z,6.90
2018-05-09T02:16:39.496Z,6.70
2018-05-09T02:17:39.701Z,6.40
2018-05-09T02:18:39.900Z,7.10
2018-05-09T02:19:40.116Z,7.00
2018-05-09T02:20:40.327Z,6.90
2018-05-09T02:21:40.543Z,6.50
2018-05-09T02:22:40.764Z,6.90
2018-05-09T02:23:40.988Z,6.80
2018-05-09T02:24:41.189Z,6.90
2018-05-09T02:25:41.412Z,6.80
2018-05-09T02:26:41.624Z,6.80
2018-05-09T02:27:41.848Z,6.60
2018-05-09T02:28:42.075Z,6.60
2018-05-09T02:29:42.285Z,6.70
2018-05-09T02:30:44.200Z,6.70
2018-05-09T02:31:42.669Z,6.70
2018-05-09T02:32:42.884Z,6.90
2018-05-09T02:33:43.110Z,6.70
2018-05-09T02:34:43.322Z,7.20
2018-05-09T02:35:43.533Z,6.80
2018-05-09T02:36:43.750Z,7.00
2018-05-09T02:37:43.953Z,6.90
2018-05-09T02:38:44.161Z,7.10
2018-05-09T02:39:44.374Z,7.10
2018-05-09T02:40:44.581Z,6.90
2018-05-09T02:41:44.807Z,7.20
2018-05-09T02:42:45.015Z,6.80
2018-05-09T02:43:45.351Z,7.20
2018-05-09T02:44:45.440Z,7.60
2018-05-09T02:45:45.667Z,7.20
2018-05-09T02:46:45.921Z,7.30
2018-05-09T02:47:46.120Z,8.00
2018-05-09T02:48:48.090Z,7.50
2018-05-09T02:49:46.655Z,7.50
2018-05-09T02:50:46.778Z,8.20
2018-05-09T02:51:48.701Z,7.70
2018-05-09T02:52:47.174Z,7.70
2018-05-09T02:53:49.205Z,7.80
2018-05-09T02:54:47.533Z,7.50
2018-05-09T02:55:47.789Z,7.70
2018-05-09T02:56:47.971Z,7.80
2018-05-09T02:57:48.190Z,8.00
2018-05-09T02:58:50.202Z,7.60
2018-05-09T02:59:48.529Z,8.10
2018-05-09T03:00:48.743Z,7.40
2018-05-09T03:01:48.991Z,7.90
2018-05-09T03:02:49.195Z,8.40
2018-05-09T03:03:49.406Z,7.70
2018-05-09T03:04:49.633Z,7.90
2018-05-09T03:05:49.850Z,8.00
2018-05-09T03:06:50.059Z,7.80
2018-05-09T03:07:50.282Z,7.50
2018-05-09T03:08:50.509Z,7.50
2018-05-09T03:09:50.711Z,7.90
2018-05-09T03:10:50.916Z,8.00
2018-05-09T03:11:51.137Z,7.60
2018-05-09T03:12:51.346Z,7.70
2018-05-09T03:13:51.550Z,7.30
2018-05-09T03:14:51.772Z,7.80
2018-05-09T03:15:51.983Z,8.00
2018-05-09T03:16:52.203Z,7.90
2018-05-09T03:17:52.424Z,7.50
2018-05-09T03:18:52.644Z,7.80
2018-05-09T03:19:52.863Z,8.10
2018-05-09T03:20:53.082Z,7.90
2018-05-09T03:21:53.299Z,7.90
2018-05-09T03:22:53.530Z,7.40
2018-05-09T03:23:53.746Z,7.80
2018-05-09T03:24:53.957Z,7.60
2018-05-09T03:25:54.174Z,7.30
2018-05-09T03:26:56.194Z,7.60
2018-05-09T03:27:54.527Z,7.60
2018-05-09T03:28:54.759Z,6.80
2018-05-09T03:29:54.966Z,7.30
2018-05-09T03:30:55.188Z,7.20
2018-05-09T03:31:55.419Z,7.40
2018-05-09T03:32:58.200Z,7.60
2018-05-09T03:33:55.818Z,7.80
2018-05-09T03:34:56.015Z,7.60
2018-05-09T03:35:56.232Z,7.30
2018-05-09T03:36:56.448Z,7.60
2018-05-09T03:37:57.414Z,7.40
2018-05-09T03:38:56.895Z,7.30
2018-05-09T03:39:57.126Z,7.10
2018-05-09T03:40:57.333Z,7.50
2018-05-09T03:41:57.552Z,7.50
2018-05-09T03:42:57.765Z,7.70
2018-05-09T03:43:57.971Z,7.80
2018-05-09T03:44:59.703Z,7.60
2018-05-09T03:45:58.408Z,7.50
2018-05-09T03:46:58.611Z,7.70
2018-05-09T03:47:58.836Z,7.70
2018-05-09T03:49:00.700Z,7.50
2018-05-09T03:49:59.164Z,7.60
2018-05-09T03:50:59.388Z,7.20
2018-05-09T03:51:59.592Z,7.50
2018-05-09T03:52:59.803Z,7.80
2018-05-09T03:54:00.030Z,8.00
2018-05-09T03:55:00.221Z,7.50
2018-05-09T03:56:00.439Z,7.60
2018-05-09T03:57:00.666Z,7.40
2018-05-09T03:58:00.876Z,7.40
2018-05-09T03:59:01.101Z,7.10
2018-05-09T04:00:01.317Z,7.40
2018-05-09T04:01:01.526Z,7.50
2018-05-09T04:02:01.759Z,8.50
2018-05-09T04:03:01.948Z,8.10
2018-05-09T04:04:02.176Z,7.60
2018-05-09T04:05:02.288Z,7.60
2018-05-09T04:06:04.204Z,7.50
2018-05-09T04:07:02.673Z,7.60
2018-05-09T04:08:02.884Z,7.60
2018-05-09T04:09:03.095Z,7.60
2018-05-09T04:10:03.322Z,7.70
2018-05-09T04:11:03.526Z,7.50
2018-05-09T04:12:03.743Z,7.80
2018-05-09T04:13:03.962Z,7.80
2018-05-09T04:14:04.161Z,7.60
2018-05-09T04:15:04.425Z,7.50
2018-05-09T04:16:04.614Z,7.40
2018-05-09T04:17:04.825Z,7.50
2018-05-09T04:18:05.057Z,7.40
2018-05-09T04:19:05.349Z,8.00
2018-05-09T04:20:05.467Z,7.00
2018-05-09T04:21:05.694Z,7.60
2018-05-09T04:22:05.896Z,7.50
2018-05-09T04:23:06.117Z,7.50
2018-05-09T04:24:06.343Z,6.90
2018-05-09T04:25:06.546Z,7.60
2018-05-09T04:26:06.754Z,7.40
2018-05-09T04:27:06.961Z,7.30
2018-05-09T04:28:07.258Z,7.40
2018-05-09T04:29:07.403Z,7.40
2018-05-09T04:30:07.618Z,7.20
2018-05-09T04:31:07.836Z,7.30
2018-05-09T04:32:08.049Z,7.60
2018-05-09T04:33:10.195Z,7.40
2018-05-09T04:34:08.412Z,7.50
2018-05-09T04:35:08.619Z,7.80
2018-05-09T04:36:08.856Z,7.20
2018-05-09T04:37:09.076Z,7.30
2018-05-09T04:38:09.275Z,7.10
2018-05-09T04:39:09.491Z,7.20
2018-05-09T04:40:11.205Z,7.10
2018-05-09T04:41:09.924Z,7.10
2018-05-09T04:42:10.157Z,6.90
2018-05-09T04:43:13.205Z,7.00
2018-05-09T04:44:10.543Z,6.70
2018-05-09T04:45:10.768Z,7.10
2018-05-09T04:46:10.988Z,6.80
2018-05-09T04:47:11.204Z,6.70
2018-05-09T04:48:13.208Z,6.80
2018-05-09T04:49:11.587Z,7.10
2018-05-09T04:50:11.745Z,6.70
2018-05-09T04:51:13.694Z,6.70
2018-05-09T04:52:12.155Z,7.20
2018-05-09T04:53:12.409Z,6.50
2018-05-09T04:54:12.579Z,6.70
2018-05-09T04:55:14.719Z,7.00
2018-05-09T04:56:15.702Z,7.20
2018-05-09T04:57:13.154Z,6.70
2018-05-09T04:58:13.373Z,6.70
2018-05-09T04:59:13.592Z,6.90
2018-05-09T05:00:13.809Z,6.50
2018-05-09T05:01:14.023Z,7.10
2018-05-09T05:02:14.250Z,6.50
2018-05-09T05:03:14.462Z,7.00
2018-05-09T05:04:14.677Z,6.70
2018-05-09T05:05:14.881Z,7.20
2018-05-09T05:06:16.693Z,7.00
2018-05-09T05:07:15.287Z,7.00
2018-05-09T05:08:15.498Z,6.90
2018-05-09T05:09:15.708Z,6.90
2018-05-09T05:10:17.695Z,6.90
2018-05-09T05:11:16.163Z,6.70
2018-05-09T05:12:16.420Z,6.70
2018-05-09T05:13:16.611Z,6.90
2018-05-09T05:14:18.694Z,6.30
2018-05-09T05:15:17.037Z,6.70
2018-05-09T05:16:19.194Z,6.60
2018-05-09T05:17:17.405Z,7.10
2018-05-09T05:18:17.618Z,7.00
2018-05-09T05:19:19.695Z,6.90
2018-05-09T05:20:18.036Z,6.90
2018-05-09T05:21:18.259Z,6.50
2018-05-09T05:22:18.469Z,7.20
2018-05-09T05:23:18.685Z,7.10
2018-05-09T05:24:20.707Z,7.00
2018-05-09T05:25:19.062Z,7.20
2018-05-09T05:26:19.269Z,6.80
2018-05-09T05:27:19.488Z,6.90
2018-05-09T05:28:19.709Z,6.70
2018-05-09T05:29:19.925Z,6.70
2018-05-09T05:30:20.132Z,6.80
2018-05-09T05:31:20.353Z,6.90
2018-05-09T05:32:20.577Z,6.90
2018-05-09T05:33:20.793Z,6.80
2018-05-09T05:34:22.708Z,6.80
2018-05-09T05:35:21.178Z,6.20
2018-05-09T05:36:21.387Z,6.40
2018-05-09T05:37:21.623Z,7.10
2018-05-09T05:38:21.860Z,6.60
2018-05-09T05:39:23.701Z,6.40
2018-05-09T05:40:22.295Z,6.60
2018-05-09T05:41:22.509Z,6.50
2018-05-09T05:42:24.697Z,6.20
2018-05-09T05:43:22.913Z,6.70
2018-05-09T05:44:24.705Z,6.40
2018-05-09T05:45:23.393Z,5.80
2018-05-09T05:46:23.524Z,6.30
2018-05-09T05:47:23.753Z,6.20
2018-05-09T05:48:25.700Z,6.40
2018-05-09T05:49:24.164Z,6.20
2018-05-09T05:50:24.401Z,6.20
2018-05-09T05:51:24.601Z,6.00
2018-05-09T05:52:24.822Z,6.70
2018-05-09T05:53:26.744Z,6.30
2018-05-09T05:54:25.173Z,6.40
2018-05-09T05:55:25.391Z,6.40
2018-05-09T05:56:25.617Z,6.40
2018-05-09T05:57:25.833Z,5.90
2018-05-09T05:58:26.045Z,5.90
2018-05-09T05:59:26.255Z,6.00
2018-05-09T06:00:26.466Z,6.30
2018-05-09T06:01:26.689Z,5.90
2018-05-09T06:02:26.924Z,5.80
2018-05-09T06:03:27.129Z,6.10
2018-05-09T06:04:27.365Z,6.00
2018-05-09T06:05:27.573Z,5.80
2018-05-09T06:06:27.846Z,6.20
2018-05-09T06:07:28.038Z,6.20
2018-05-09T06:08:28.228Z,5.70
2018-05-09T06:09:28.440Z,5.90
2018-05-09T06:10:28.703Z,6.00
2018-05-09T06:11:32.699Z,6.10
2018-05-09T06:12:29.047Z,5.90
2018-05-09T06:13:29.266Z,6.10
2018-05-09T06:14:31.216Z,5.80
2018-05-09T06:15:29.695Z,5.80
2018-05-09T06:16:29.910Z,6.20
2018-05-09T06:17:30.139Z,5.70
2018-05-09T06:18:30.368Z,5.70
2018-05-09T06:19:32.211Z,5.60
2018-05-09T06:20:30.797Z,5.30
2018-05-09T06:21:31.031Z,5.60
2018-05-09T06:22:31.252Z,5.60
2018-05-09T06:23:33.221Z,5.40
2018-05-09T06:24:31.706Z,5.30
2018-05-09T06:25:31.919Z,5.10
2018-05-09T06:26:32.139Z,5.40
2018-05-09T06:27:33.358Z,5.20
2018-05-09T06:28:34.202Z,5.10
2018-05-09T06:29:32.808Z,5.10
2018-05-09T06:30:33.020Z,5.20
2018-05-09T06:31:33.239Z,4.50
2018-05-09T06:32:33.470Z,5.20
2018-05-09T06:33:33.648Z,5.50
2018-05-09T06:34:33.748Z,5.10
2018-05-09T06:35:33.966Z,5.20
2018-05-09T06:36:35.708Z,4.90
2018-05-09T06:37:36.257Z,5.20
2018-05-09T06:38:37.212Z,4.80
2018-05-09T06:39:34.837Z,5.20
2018-05-09T06:40:35.035Z,5.50
2018-05-09T06:41:35.192Z,5.50
2018-05-09T06:42:35.330Z,5.40
2018-05-09T06:43:35.553Z,5.40
2018-05-09T06:44:35.806Z,5.30
2018-05-09T06:45:37.713Z,5.10
2018-05-09T06:46:36.049Z,5.10
2018-05-09T06:47:36.262Z,4.70
2018-05-09T06:48:38.211Z,4.70
2018-05-09T06:49:38.206Z,5.10
2018-05-09T06:50:38.704Z,5.40
2018-05-09T06:51:38.707Z,4.80
2018-05-09T06:52:37.167Z,5.00
2018-05-09T06:53:39.210Z,4.70
2018-05-09T06:54:37.558Z,4.90
2018-05-09T06:55:37.818Z,4.80
2018-05-09T06:56:38.058Z,5.00
2018-05-09T06:57:38.262Z,5.00
2018-05-09T06:58:39.495Z,4.70
2018-05-09T06:59:41.706Z,4.80
2018-05-09T07:00:41.718Z,4.40
2018-05-09T07:01:41.725Z,4.60
2018-05-09T07:02:42.708Z,4.20
2018-05-09T07:03:43.211Z,4.40
2018-05-09T07:04:41.229Z,4.50
2018-05-09T07:05:43.223Z,4.20
2018-05-09T07:06:42.137Z,4.10
2018-05-09T07:07:41.113Z,4.10
2018-05-09T07:08:40.240Z,4.00
2018-05-09T07:09:41.375Z,3.90
2018-05-09T07:11:02.481Z,3.90
2018-05-09T07:11:42.235Z,4.30
2018-05-09T07:12:42.807Z,3.80
2018-05-09T07:13:42.765Z,4.00
2018-05-09T07:14:41.193Z,4.00
2018-05-09T07:15:43.206Z,3.90
2018-05-09T07:16:43.206Z,4.00
2018-05-09T07:17:43.210Z,4.10
2018-05-09T07:18:43.714Z,4.10
2018-05-09T07:19:42.079Z,4.10
2018-05-09T07:20:42.290Z,4.20
2018-05-09T07:21:44.216Z,4.50
2018-05-09T07:22:44.215Z,3.70
2018-05-09T07:23:45.737Z,4.20
2018-05-09T07:24:44.725Z,4.20
2018-05-09T07:25:45.223Z,4.10
2018-05-09T07:26:43.573Z,4.30
2018-05-09T07:27:43.844Z,4.30
2018-05-09T07:28:44.068Z,4.30
2018-05-09T07:29:46.161Z,4.40
2018-05-09T07:30:46.244Z,4.10
2018-05-09T07:31:44.725Z,4.40
2018-05-09T07:32:46.728Z,3.90
2018-05-09T07:33:46.757Z,3.90
2018-05-09T07:34:45.311Z,3.90
2018-05-09T07:35:47.251Z,3.40
2018-05-09T07:36:47.219Z,3.50
2018-05-09T07:37:48.752Z,3.90
2018-05-09T07:38:45.992Z,4.10
2018-05-09T07:39:46.222Z,4.00
2018-05-09T07:40:48.244Z,4.10
2018-05-09T07:41:48.310Z,3.80
2018-05-09T07:42:53.021Z,3.70
2018-05-09T07:43:47.707Z,3.40
2018-05-09T07:44:47.197Z,3.50
2018-05-09T07:45:47.432Z,3.90
2018-05-09T07:46:47.663Z,3.70
2018-05-09T07:47:49.789Z,3.90
2018-05-09T07:48:50.181Z,3.70
2018-05-09T07:49:50.339Z,3.50
2018-05-09T07:50:48.425Z,3.40
2018-05-09T07:51:50.219Z,3.60
2018-05-09T07:52:48.812Z,3.60
2018-05-09T07:53:53.986Z,3.70
2018-05-09T07:54:56.713Z,3.50
2018-05-09T07:55:49.446Z,3.40
2018-05-09T07:56:57.283Z,3.50
2018-05-09T07:57:51.738Z,3.20
2018-05-09T07:58:50.113Z,3.40
2018-05-09T07:59:51.196Z,3.30
2018-05-09T08:00:52.584Z,3.60
2018-05-09T08:01:50.686Z,3.40
2018-05-09T08:02:53.200Z,3.20
2018-05-09T08:03:54.735Z,3.90
2018-05-09T08:04:51.342Z,3.40
2018-05-09T08:05:51.573Z,3.10
2018-05-09T08:06:53.722Z,3.10
2018-05-09T08:07:55.729Z,3.30
2018-05-09T08:08:53.725Z,3.30
2018-05-09T08:09:53.439Z,3.40
2018-05-09T08:10:52.716Z,3.30
2018-05-09T08:11:53.674Z,3.40
2018-05-09T08:12:54.723Z,3.20
2018-05-09T08:13:55.767Z,3.30
2018-05-09T08:14:54.175Z,3.50
2018-05-09T08:15:55.216Z,3.30
2018-05-09T08:16:56.216Z,3.40
2018-05-09T08:17:54.425Z,3.10
2018-05-09T08:18:55.190Z,3.10
2018-05-09T08:19:58.977Z,3.00
2018-05-09T08:20:56.223Z,3.20
2018-05-09T08:21:54.862Z,2.90
2018-05-09T08:22:55.047Z,2.80
2018-05-09T08:23:59.265Z,2.80
2018-05-09T08:25:11.215Z,3.30
2018-05-09T08:25:55.750Z,3.10
2018-05-09T08:26:59.720Z,3.10
2018-05-09T08:27:59.722Z,2.90
2018-05-09T08:28:57.672Z,3.20
2018-05-09T08:29:58.220Z,3.20
2018-05-09T08:30:58.549Z,3.10
2018-05-09T08:32:01.670Z,2.90
2018-05-09T08:32:58.717Z,2.60
2018-05-09T08:33:58.724Z,3.30
2018-05-09T08:34:59.455Z,2.70
2018-05-09T08:36:03.278Z,3.10
2018-05-09T08:37:00.186Z,3.30
2018-05-09T08:37:58.867Z,3.00
2018-05-09T08:39:05.719Z,3.00
2018-05-09T08:40:00.411Z,3.00
2018-05-09T08:41:00.241Z,3.10
2018-05-09T08:42:00.232Z,2.80
2018-05-09T08:43:01.731Z,2.60
2018-05-09T08:43:59.130Z,2.90
2018-05-09T08:45:20.166Z,2.80
2018-05-09T08:45:59.366Z,2.70
2018-05-09T08:47:23.200Z,2.70
2018-05-09T08:48:03.845Z,3.00
2018-05-09T08:49:01.700Z,2.70
2018-05-09T08:50:01.721Z,2.80
2018-05-09T08:51:05.095Z,2.90
2018-05-09T08:52:23.636Z,2.90
2018-05-09T08:53:00.877Z,2.70
2018-05-09T08:54:02.715Z,2.80
2018-05-09T08:55:02.722Z,2.60
2018-05-09T08:56:05.268Z,2.70
2018-05-09T08:57:02.541Z,2.70
2018-05-09T08:58:05.663Z,2.70
2018-05-09T08:59:03.676Z,2.60
2018-05-09T09:00:02.045Z,2.80
2018-05-09T09:01:04.219Z,2.70
2018-05-09T09:02:02.449Z,2.90
2018-05-09T09:03:24.638Z,2.70
2018-05-09T09:04:05.691Z,2.70
2018-05-09T09:05:05.668Z,2.90
2018-05-09T09:06:05.271Z,2.60
2018-05-09T09:07:05.700Z,3.10
2018-05-09T09:08:10.250Z,2.90
2018-05-09T09:09:06.723Z,2.90
2018-05-09T09:10:07.702Z,2.50
2018-05-09T09:11:08.170Z,2.90
2018-05-09T09:12:08.162Z,2.40
2018-05-09T09:13:04.791Z,2.50
2018-05-09T09:14:05.014Z,2.80
2018-05-09T09:15:07.232Z,2.60
2018-05-09T09:16:10.209Z,2.90
2018-05-09T09:17:28.222Z,2.40
2018-05-09T09:18:05.908Z,3.00
2018-05-09T09:19:07.721Z,2.80
2018-05-09T09:20:08.707Z,3.00
2018-05-09T09:21:07.176Z,3.00
2018-05-09T09:22:10.234Z,3.00
2018-05-09T09:23:06.819Z,3.10
2018-05-09T09:24:08.713Z,2.80
2018-05-09T09:25:07.186Z,2.70
2018-05-09T09:26:08.221Z,2.70
2018-05-09T09:27:07.681Z,2.50
2018-05-09T09:28:09.036Z,2.40
2018-05-09T09:29:08.287Z,2.70
2018-05-09T09:30:08.289Z,2.50
2018-05-09T09:31:10.229Z,2.60
2018-05-09T09:32:11.225Z,2.60
2018-05-09T09:33:10.742Z,2.70
2018-05-09T09:34:10.737Z,2.80
2018-05-09T09:35:10.720Z,2.50
2018-05-09T09:36:09.502Z,2.50
2018-05-09T09:37:09.670Z,2.70
2018-05-09T09:38:09.899Z,2.60
2018-05-09T09:39:12.206Z,2.40
2018-05-09T09:40:13.701Z,2.20
2018-05-09T09:41:12.236Z,2.50
2018-05-09T09:42:12.219Z,2.30
2018-05-09T09:43:26.963Z,2.40
2018-05-09T09:44:11.196Z,2.30
2018-05-09T09:45:13.682Z,2.40
2018-05-09T09:46:27.394Z,2.50
2018-05-09T09:47:13.249Z,2.40
2018-05-09T09:48:13.841Z,2.50
2018-05-09T09:49:13.719Z,2.70
2018-05-09T09:50:12.325Z,2.40
2018-05-09T09:51:14.241Z,2.70
2018-05-09T09:52:14.227Z,2.60
2018-05-09T09:53:15.215Z,2.50
2018-05-09T09:54:13.137Z,2.70
2018-05-09T09:55:17.927Z,2.30
2018-05-09T09:56:13.488Z,2.70
2018-05-09T09:57:14.734Z,2.20
2018-05-09T09:58:19.214Z,2.60
2018-05-09T09:59:17.820Z,2.40
2018-05-09T10:00:16.227Z,2.50
2018-05-09T10:01:14.632Z,2.50
2018-05-09T10:02:17.727Z,2.50
2018-05-09T10:03:16.718Z,2.60
2018-05-09T10:04:16.204Z,2.20
2018-05-09T10:05:19.260Z,2.20
2018-05-09T10:06:18.233Z,2.40
2018-05-09T10:07:15.870Z,2.40
2018-05-09T10:08:31.741Z,2.50
2018-05-09T10:09:17.670Z,2.10
2018-05-09T10:10:18.218Z,2.50
2018-05-09T10:11:21.689Z,2.30
2018-05-09T10:12:17.940Z,2.20
2018-05-09T10:13:19.171Z,2.20
2018-05-09T10:14:19.217Z,2.10
2018-05-09T10:15:19.221Z,2.30
2018-05-09T10:16:19.223Z,2.30
2018-05-09T10:17:19.410Z,1.90
2018-05-09T10:18:17.910Z,1.90
2018-05-09T10:19:19.738Z,1.90
2018-05-09T10:20:24.170Z,2.30
2018-05-09T10:21:20.220Z,2.00
2018-05-09T10:22:20.225Z,2.00
2018-05-09T10:23:20.819Z,1.80
2018-05-09T10:24:19.145Z,2.20
2018-05-09T10:25:19.345Z,2.10
2018-05-09T10:26:23.568Z,2.20
2018-05-09T10:27:21.776Z,2.00
2018-05-09T10:28:19.957Z,2.00
2018-05-09T10:29:20.189Z,2.10
2018-05-09T10:30:20.365Z,2.00
2018-05-09T10:31:26.442Z,2.10
2018-05-09T10:32:22.729Z,2.00
2018-05-09T10:33:28.745Z,2.20
2018-05-09T10:34:22.733Z,2.30
2018-05-09T10:35:22.229Z,2.30
2018-05-09T10:36:22.216Z,2.00
2018-05-09T10:37:21.702Z,2.10
2018-05-09T10:38:23.194Z,2.30
2018-05-09T10:39:23.092Z,2.20
2018-05-09T10:40:24.197Z,2.50
2018-05-09T10:41:26.218Z,2.30
2018-05-09T10:42:27.060Z,2.20
2018-05-09T10:43:28.939Z,2.20
2018-05-09T10:44:23.157Z,2.00
2018-05-09T10:45:23.872Z,2.30
2018-05-09T10:46:28.554Z,2.20
2018-05-09T10:47:27.748Z,2.30
2018-05-09T10:48:25.726Z,2.50
2018-05-09T10:49:25.690Z,2.50
2018-05-09T10:50:24.310Z,2.30
2018-05-09T10:51:24.537Z,2.50
2018-05-09T10:52:24.773Z,2.30
2018-05-09T10:53:26.691Z,2.50
2018-05-09T10:54:26.732Z,2.80
2018-05-09T10:55:27.270Z,2.50
2018-05-09T10:56:28.229Z,2.50
2018-05-09T10:57:27.235Z,2.40
2018-05-09T10:58:33.199Z,2.40
2018-05-09T10:59:26.192Z,2.40
2018-05-09T11:00:28.241Z,2.20
2018-05-09T11:01:28.225Z,2.30
2018-05-09T11:02:28.719Z,2.50
2018-05-09T11:03:28.686Z,2.50
2018-05-09T11:04:28.951Z,2.40
2018-05-09T11:05:27.507Z,2.20
2018-05-09T11:06:32.683Z,2.30
2018-05-09T11:07:29.724Z,2.50
2018-05-09T11:08:30.724Z,2.40
2018-05-09T11:09:30.761Z,2.20
2018-05-09T11:10:32.200Z,2.10
2018-05-09T11:11:31.224Z,2.20
2018-05-09T11:12:28.705Z,2.30
2018-05-09T11:13:28.939Z,2.60
2018-05-09T11:14:36.904Z,2.30
2018-05-09T11:15:31.239Z,2.50
2018-05-09T11:16:31.166Z,2.80
2018-05-09T11:17:44.730Z,2.40
2018-05-09T11:18:30.279Z,2.60
2018-05-09T11:19:31.209Z,2.60
2018-05-09T11:20:32.236Z,3.00
2018-05-09T11:21:32.674Z,2.70
2018-05-09T11:22:30.670Z,2.60
2018-05-09T11:23:34.722Z,2.70
2018-05-09T11:24:37.744Z,2.60
2018-05-09T11:25:35.274Z,2.50
2018-05-09T11:26:32.218Z,2.40
2018-05-09T11:27:36.181Z,2.50
2018-05-09T11:28:33.767Z,2.50
2018-05-09T11:29:32.691Z,2.40
2018-05-09T11:30:34.223Z,2.20
2018-05-09T11:31:32.461Z,2.40
2018-05-09T11:32:41.238Z,2.40
2018-05-09T11:33:34.751Z,2.60
2018-05-09T11:34:57.757Z,2.50
2018-05-09T11:35:33.135Z,2.50
2018-05-09T11:36:38.187Z,2.60
2018-05-09T11:37:33.563Z,2.30
2018-05-09T11:38:35.174Z,2.50
2018-05-09T11:39:35.735Z,2.30
2018-05-09T11:40:34.115Z,2.30
2018-05-09T11:41:37.727Z,2.40
2018-05-09T11:42:35.477Z,2.40
2018-05-09T11:43:36.221Z,2.40
2018-05-09T11:44:39.187Z,2.30
2018-05-09T11:45:38.687Z,2.60
2018-05-09T11:46:39.225Z,2.30
2018-05-09T11:47:35.553Z,2.20
2018-05-09T11:48:38.169Z,2.50
2018-05-09T11:49:35.941Z,4.70
2018-05-09T11:50:36.040Z,4.90
2018-05-09T11:51:36.292Z,2.90
2018-05-09T11:52:38.259Z,2.70
2018-05-09T11:53:37.428Z,6.30
2018-05-09T11:54:36.913Z,2.50
2018-05-09T11:55:38.765Z,2.70
2018-05-09T11:56:53.250Z,2.10
2018-05-09T11:57:37.654Z,2.50
2018-05-09T11:58:39.233Z,2.30
2018-05-09T11:59:39.738Z,2.40
2018-05-09T12:00:39.749Z,2.50
2018-05-09T12:01:39.358Z,2.30
2018-05-09T12:02:38.678Z,2.30
2018-05-09T12:03:41.726Z,2.60
2018-05-09T12:04:40.736Z,2.40
2018-05-09T12:05:46.734Z,2.50
2018-05-09T12:06:39.453Z,2.50
2018-05-09T12:07:41.184Z,2.30
2018-05-09T12:08:40.936Z,2.50
2018-05-09T12:09:41.749Z,2.70
2018-05-09T12:10:44.355Z,2.50
2018-05-09T12:11:44.467Z,2.70
2018-05-09T12:12:42.729Z,2.40
2018-05-09T12:13:40.970Z,2.60
2018-05-09T12:14:42.756Z,2.50
2018-05-09T12:15:43.229Z,2.40
2018-05-09T12:16:43.225Z,2.50
2018-05-09T12:17:41.704Z,2.70
2018-05-09T12:18:42.966Z,2.70
2018-05-09T12:19:45.725Z,2.60
2018-05-09T12:20:43.197Z,2.50
2018-05-09T12:21:42.427Z,2.40
2018-05-09T12:22:50.231Z,2.60
2018-05-09T12:23:50.729Z,2.80
2018-05-09T12:24:44.727Z,2.70
2018-05-09T12:25:44.733Z,2.60
2018-05-09T12:26:43.361Z,2.30
2018-05-09T12:27:45.252Z,2.50
2018-05-09T12:28:45.227Z,2.40
2018-05-09T12:29:44.880Z,2.40
2018-05-09T12:30:50.777Z,2.60
2018-05-09T12:31:48.272Z,2.50
2018-05-09T12:32:46.187Z,2.50
2018-05-09T12:33:46.272Z,2.90
2018-05-09T12:35:07.233Z,2.60
2018-05-09T12:35:46.747Z,4.70
2018-05-09T12:36:48.738Z,3.90
2018-05-09T12:38:01.226Z,2.80
2018-05-09T12:38:46.601Z,2.60
2018-05-09T12:39:47.245Z,2.60
2018-05-09T12:40:47.743Z,2.40
2018-05-09T12:41:47.737Z,4.50
2018-05-09T12:42:47.558Z,2.80
2018-05-09T12:43:46.544Z,2.40
2018-05-09T12:44:47.684Z,2.90
2018-05-09T12:45:47.942Z,2.70
2018-05-09T12:46:50.729Z,2.60
2018-05-09T12:47:47.321Z,2.90
2018-05-09T12:48:49.271Z,2.70
2018-05-09T12:49:49.245Z,2.60
2018-05-09T12:50:47.980Z,2.60
2018-05-09T12:51:49.250Z,2.70
2018-05-09T12:52:50.263Z,2.60
2018-05-09T12:53:52.242Z,2.60
2018-05-09T12:54:50.248Z,3.10
2018-05-09T12:55:48.930Z,2.50
2018-05-09T12:57:04.732Z,2.70
2018-05-09T12:57:49.201Z,2.50
2018-05-09T12:58:53.231Z,3.10
2018-05-09T12:59:52.230Z,2.70
2018-05-09T13:00:51.758Z,2.90
2018-05-09T13:01:51.000Z,2.60
2018-05-09T13:02:51.740Z,2.70
2018-05-09T13:03:58.230Z,2.90
2018-05-09T13:04:50.652Z,2.90
2018-05-09T13:05:52.727Z,2.80
2018-05-09T13:06:54.773Z,2.90
2018-05-09T13:07:52.743Z,2.60
2018-05-09T13:08:51.347Z,2.50
2018-05-09T13:09:51.567Z,2.70
2018-05-09T13:10:54.747Z,2.80
2018-05-09T13:12:07.744Z,2.70
2018-05-09T13:12:53.739Z,2.50
2018-05-09T13:13:54.251Z,2.70
2018-05-09T13:14:56.275Z,2.60
2018-05-09T13:15:56.260Z,2.70
2018-05-09T13:16:54.732Z,2.80
2018-05-09T13:17:53.083Z,3.10
2018-05-09T13:19:01.251Z,2.50
2018-05-09T13:19:55.238Z,2.70
2018-05-09T13:20:54.760Z,2.80